createdAt,value
2019-04-06T00:01:51.175Z,97625.94
2019-04-06T00:04:18.492Z,97625.44
2019-04-06T00:06:45.384Z,97618.14
2019-04-06T00:09:12.345Z,97614.42
2019-04-06T00:11:39.325Z,97612.45
2019-04-06T00:14:06.474Z,97607.33
2019-04-06T00:16:33.552Z,97607.33
2019-04-06T00:19:00.543Z,97611.64
2019-04-06T00:21:27.729Z,97609.36
2019-04-06T00:23:54.709Z,97608.26
2019-04-06T00:26:21.582Z,97612.38
2019-04-06T00:28:48.477Z,97605.28
2019-04-06T00:31:29.710Z,97602.98
2019-04-06T00:33:56.743Z,97596.21
2019-04-06T00:36:25.459Z,97589.74
2019-04-06T00:38:52.411Z,97590.83
2019-04-06T00:41:19.523Z,97590.47
2019-04-06T00:43:46.415Z,97593.63
2019-04-06T00:46:13.518Z,97592.51
2019-04-06T00:48:40.330Z,97596.48
2019-04-06T00:51:08.326Z,97593.80
2019-04-06T00:53:35.136Z,97598.50
2019-04-06T00:56:02.288Z,97591.75
2019-04-06T00:58:32.331Z,97595.02
2019-04-06T01:00:59.303Z,97587.23
2019-04-06T01:03:27.511Z,97597.56
2019-04-06T01:05:55.674Z,97591.56
2019-04-06T01:08:22.874Z,97596.77
2019-04-06T01:10:51.065Z,97591.91
2019-04-06T01:13:18.002Z,97590.61
2019-04-06T01:15:45.711Z,97589.85
2019-04-06T01:18:15.168Z,97593.23
2019-04-06T01:20:44.727Z,97590.89
2019-04-06T01:23:14.498Z,97593.08
2019-04-06T01:25:41.759Z,97586.16
2019-04-06T01:28:08.604Z,97582.56
2019-04-06T01:30:35.804Z,97588.25
2019-04-06T01:33:02.905Z,97584.98
2019-04-06T01:35:32.224Z,97586.92
2019-04-06T01:37:59.132Z,97584.86
2019-04-06T01:40:25.945Z,97587.37
2019-04-06T01:42:52.811Z,97581.41
2019-04-06T01:45:19.635Z,97584.85
2019-04-06T01:47:46.864Z,97593.11
2019-04-06T01:50:13.847Z,97594.95
2019-04-06T01:52:41.061Z,97593.92
2019-04-06T01:55:08.654Z,97593.23
2019-04-06T01:57:35.892Z,97589.78
2019-04-06T02:00:07.512Z,97590.37
2019-04-06T02:02:36.223Z,97588.89
2019-04-06T02:05:05.857Z,97587.30
2019-04-06T02:07:34.481Z,97591.46
2019-04-06T02:10:01.396Z,97589.52
2019-04-06T02:12:29.078Z,97582.69
2019-04-06T02:14:58.507Z,97584.28
2019-04-06T02:17:25.611Z,97581.16
2019-04-06T02:19:52.492Z,97579.38
2019-04-06T02:22:19.450Z,97579.31
2019-04-06T02:24:46.334Z,97582.88
2019-04-06T02:27:16.032Z,97586.08
2019-04-06T02:29:43.079Z,97595.77
2019-04-06T02:32:10.010Z,97597.42
2019-04-06T02:34:42.442Z,97600.37
2019-04-06T02:37:24.152Z,97599.75
2019-04-06T02:39:53.538Z,97590.34
2019-04-06T02:42:31.972Z,97596.86
2019-04-06T02:44:59.118Z,97595.36
2019-04-06T02:47:26.489Z,97591.39
2019-04-06T02:49:53.688Z,97592.27
2019-04-06T02:52:20.676Z,97587.83
2019-04-06T02:54:47.765Z,97588.55
2019-04-06T02:57:14.852Z,97597.67
2019-04-06T02:59:41.757Z,97592.09
2019-04-06T03:02:08.675Z,97593.55
2019-04-06T03:04:35.790Z,97591.84
2019-04-06T03:07:03.406Z,97591.86
2019-04-06T03:09:30.501Z,97588.41
2019-04-06T03:11:57.534Z,97591.08
2019-04-06T03:14:24.638Z,97584.94
2019-04-06T03:16:52.065Z,97577.72
2019-04-06T03:19:19.418Z,97580.67
2019-04-06T03:21:46.759Z,97582.67
2019-04-06T03:24:14.251Z,97582.37
2019-04-06T03:26:41.381Z,97577.05
2019-04-06T03:29:08.502Z,97573.14
2019-04-06T03:31:35.770Z,97572.41
2019-04-06T03:34:03.118Z,97572.15
2019-04-06T03:36:34.309Z,97575.62
2019-04-06T03:39:01.826Z,97570.30
2019-04-06T03:41:31.366Z,97578.81
2019-04-06T03:43:58.255Z,97574.53
2019-04-06T03:46:26.480Z,97573.90
2019-04-06T03:48:56.254Z,97577.36
2019-04-06T03:51:24.092Z,97574.33
2019-04-06T03:53:51.317Z,97576.53
2019-04-06T03:56:18.335Z,97578.91
2019-04-06T03:58:45.493Z,97578.91
2019-04-06T04:01:14.845Z,97585.66
2019-04-06T04:03:43.624Z,97590.09
2019-04-06T04:06:10.691Z,97586.08
2019-04-06T04:08:37.687Z,97577.47
2019-04-06T04:11:05.131Z,97578.30
2019-04-06T04:13:32.037Z,97578.09
2019-04-06T04:16:00.003Z,97581.53
2019-04-06T04:18:27.052Z,97583.14
2019-04-06T04:20:54.559Z,97579.82
2019-04-06T04:23:23.304Z,97572.56
2019-04-06T04:25:50.783Z,97581.43
2019-04-06T04:28:19.992Z,97577.41
2019-04-06T04:30:48.027Z,97576.84
2019-04-06T04:33:16.516Z,97571.69
2019-04-06T04:35:44.738Z,97577.05
2019-04-06T04:38:13.370Z,97571.79
2019-04-06T04:40:42.468Z,97571.53
2019-04-06T04:43:09.600Z,97573.60
2019-04-06T04:45:42.727Z,97575.34
2019-04-06T04:48:10.067Z,97584.73
2019-04-06T04:50:37.150Z,97587.10
2019-04-06T04:53:07.789Z,97589.61
2019-04-06T04:55:35.285Z,97593.63
2019-04-06T04:58:03.118Z,97595.70
2019-04-06T05:00:31.330Z,97596.74
2019-04-06T05:02:58.695Z,97592.55
2019-04-06T05:05:26.127Z,97599.51
2019-04-06T05:07:53.005Z,97606.06
2019-04-06T05:10:20.489Z,97605.80
2019-04-06T05:12:47.396Z,97605.77
2019-04-06T05:15:34.661Z,97602.19
2019-04-06T05:18:02.023Z,97600.80
2019-04-06T05:20:29.255Z,97596.48
2019-04-06T05:22:56.194Z,97594.06
2019-04-06T05:25:23.240Z,97599.41
2019-04-06T05:27:52.199Z,97606.11
2019-04-06T05:30:19.150Z,97603.69
2019-04-06T05:32:46.074Z,97602.91
2019-04-06T05:35:13.175Z,97610.87
2019-04-06T05:37:40.075Z,97611.39
2019-04-06T05:40:07.569Z,97608.74
2019-04-06T05:42:34.588Z,97608.80
2019-04-06T05:45:01.863Z,97606.33
2019-04-06T05:47:28.927Z,97613.85
2019-04-06T05:49:55.755Z,97614.63
2019-04-06T05:52:22.660Z,97623.70
2019-04-06T05:54:49.814Z,97619.99
2019-04-06T05:57:16.766Z,97618.91
2019-04-06T05:59:43.816Z,97621.85
2019-04-06T06:02:10.827Z,97623.41
2019-04-06T06:04:40.252Z,97629.84
2019-04-06T06:07:06.423Z,97626.91
2019-04-06T06:09:33.635Z,97629.03
2019-04-06T06:12:00.523Z,97625.67
2019-04-06T06:14:27.945Z,97637.14
2019-04-06T06:16:54.830Z,97639.25
2019-04-06T06:19:21.695Z,97634.36
2019-04-06T06:21:48.871Z,97636.15
2019-04-06T06:24:15.750Z,97634.75
2019-04-06T06:26:42.557Z,97632.02
2019-04-06T06:29:09.369Z,97627.92
2019-04-06T06:31:38.521Z,97626.02
2019-04-06T06:34:05.553Z,97631.89
2019-04-06T06:36:34.869Z,97629.34
2019-04-06T06:39:01.784Z,97632.80
2019-04-06T06:41:28.801Z,97630.63
2019-04-06T06:43:55.875Z,97630.83
2019-04-06T06:46:22.782Z,97630.75
2019-04-06T06:48:50.269Z,97618.88
2019-04-06T06:51:18.289Z,97627.63
2019-04-06T06:53:45.076Z,97625.95
2019-04-06T06:56:12.243Z,97632.84
2019-04-06T06:58:39.406Z,97632.13
2019-04-06T07:01:06.620Z,97642.45
2019-04-06T07:03:34.017Z,97643.40
2019-04-06T07:06:01.162Z,97640.81
2019-04-06T07:08:28.280Z,97643.48
2019-04-06T07:10:56.271Z,97637.52
2019-04-06T07:13:24.380Z,97636.69
2019-04-06T07:15:51.195Z,97636.85
2019-04-06T07:18:18.327Z,97638.28
2019-04-06T07:20:47.113Z,97628.97
2019-04-06T07:23:13.962Z,97630.10
2019-04-06T07:25:40.889Z,97631.45
2019-04-06T07:28:08.162Z,97637.45
2019-04-06T07:30:35.180Z,97626.67
2019-04-06T07:33:02.461Z,97629.56
2019-04-06T07:35:29.631Z,97628.50
2019-04-06T07:37:59.481Z,97623.14
2019-04-06T07:40:29.824Z,97626.64
2019-04-06T07:42:57.012Z,97628.27
2019-04-06T07:45:26.533Z,97631.40
2019-04-06T07:47:53.337Z,97624.47
2019-04-06T07:50:20.586Z,97614.74
2019-04-06T07:52:47.781Z,97608.26
2019-04-06T07:55:15.946Z,97613.19
2019-04-06T07:57:44.147Z,97613.00
2019-04-06T08:00:11.737Z,97606.94
2019-04-06T08:02:38.617Z,97600.30
2019-04-06T08:05:06.122Z,97605.06
2019-04-06T08:07:33.372Z,97601.43
2019-04-06T08:10:02.919Z,97610.48
2019-04-06T08:12:29.779Z,97602.39
2019-04-06T08:14:57.514Z,97598.25
2019-04-06T08:17:25.409Z,97597.45
2019-04-06T08:19:52.390Z,97602.77
2019-04-06T08:22:19.531Z,97600.83
2019-04-06T08:24:46.324Z,97599.44
2019-04-06T08:27:13.990Z,97593.73
2019-04-06T08:29:41.447Z,97594.30
2019-04-06T08:32:09.066Z,97595.95
2019-04-06T08:34:36.354Z,97598.34
2019-04-06T08:37:03.355Z,97596.95
2019-04-06T08:39:31.139Z,97609.34
2019-04-06T08:42:14.401Z,97602.95
2019-04-06T08:45:04.301Z,97597.53
2019-04-06T08:47:41.224Z,97597.41
2019-04-06T08:50:08.889Z,97594.53
2019-04-06T08:52:35.891Z,97597.05
2019-04-06T08:55:06.001Z,97595.45
2019-04-06T08:57:33.159Z,97596.42
2019-04-06T09:00:00.287Z,97593.06
2019-04-06T09:02:28.559Z,97593.43
2019-04-06T09:04:56.002Z,97590.31
2019-04-06T09:07:22.804Z,97589.64
2019-04-06T09:09:50.368Z,97583.73
2019-04-06T09:12:17.281Z,97583.30
2019-04-06T09:14:44.807Z,97574.53
2019-04-06T09:17:12.390Z,97573.85
2019-04-06T09:19:41.153Z,97573.92
2019-04-06T09:22:12.040Z,97565.05
2019-04-06T09:24:39.298Z,97563.06
2019-04-06T09:27:07.492Z,97554.42
2019-04-06T09:29:35.354Z,97558.34
2019-04-06T09:32:02.333Z,97557.59
2019-04-06T09:34:31.127Z,97554.80
2019-04-06T09:36:59.061Z,97553.87
2019-04-06T09:39:26.086Z,97547.22
2019-04-06T09:41:53.049Z,97545.02
2019-04-06T09:44:36.716Z,97544.98
2019-04-06T09:47:09.174Z,97548.92
2019-04-06T09:49:42.275Z,97536.66
2019-04-06T09:52:18.349Z,97534.08
2019-04-06T09:54:50.860Z,97531.58
2019-04-06T09:57:30.652Z,97527.27
2019-04-06T10:00:01.972Z,97522.27
2019-04-06T10:02:31.068Z,97519.33
2019-04-06T10:05:18.808Z,97515.64
2019-04-06T10:08:05.381Z,97508.42
2019-04-06T10:10:51.764Z,97509.20
2019-04-06T10:13:37.715Z,97509.31
2019-04-06T10:16:09.228Z,97509.15
2019-04-06T10:18:56.583Z,97506.15
2019-04-06T10:21:25.921Z,97496.12
2019-04-06T10:23:53.206Z,97510.03
2019-04-06T10:26:25.181Z,97505.02
2019-04-06T10:28:57.050Z,97503.11
2019-04-06T10:31:42.710Z,97508.21
2019-04-06T10:34:14.511Z,97507.84
2019-04-06T10:36:54.221Z,97498.14
2019-04-06T10:39:29.660Z,97497.58
2019-04-06T10:41:58.800Z,97492.47
2019-04-06T10:44:43.413Z,97492.86
2019-04-06T10:47:11.051Z,97492.08
2019-04-06T10:49:41.762Z,97486.66
2019-04-06T10:52:09.283Z,97485.34
2019-04-06T10:54:42.306Z,97490.95
2019-04-06T10:57:11.158Z,97486.48
2019-04-06T11:00:02.314Z,97483.64
2019-04-06T11:02:35.876Z,97477.40
2019-04-06T11:05:07.081Z,97463.16
2019-04-06T11:07:42.206Z,97460.28
2019-04-06T11:10:24.714Z,97472.34
2019-04-06T11:12:51.542Z,97477.05
2019-04-06T11:15:37.356Z,97469.45
2019-04-06T11:18:26.247Z,97480.33
2019-04-06T11:21:04.607Z,97471.13
2019-04-06T11:23:34.310Z,97468.63
2019-04-06T11:26:04.186Z,97473.41
2019-04-06T11:28:33.355Z,97467.40
2019-04-06T11:31:05.175Z,97462.31
2019-04-06T11:33:35.531Z,97468.21
2019-04-06T11:36:05.534Z,97471.67
2019-04-06T11:38:45.154Z,97475.64
2019-04-06T11:41:31.084Z,97476.86
2019-04-06T11:44:04.041Z,97468.70
2019-04-06T11:46:35.645Z,97471.65
2019-04-06T11:49:09.251Z,97473.38
2019-04-06T11:51:53.601Z,97468.08
2019-04-06T11:54:30.341Z,97465.90
2019-04-06T11:57:03.361Z,97476.98
2019-04-06T11:59:31.944Z,97473.91
2019-04-06T12:02:04.279Z,97479.86
2019-04-06T12:04:49.981Z,97475.51
2019-04-06T12:07:31.966Z,97479.14
2019-04-06T12:10:03.655Z,97475.82
2019-04-06T12:12:35.321Z,97486.41
2019-04-06T12:15:05.185Z,97489.05
2019-04-06T12:17:39.789Z,97489.30
2019-04-06T12:20:18.830Z,97486.00
2019-04-06T12:22:51.712Z,97491.61
2019-04-06T12:25:24.607Z,97484.20
2019-04-06T12:27:56.506Z,97487.34
2019-04-06T12:30:38.685Z,97494.31
2019-04-06T12:33:10.091Z,97487.52
2019-04-06T12:35:41.706Z,97483.36
2019-04-06T12:38:27.854Z,97484.14
2019-04-06T12:41:13.420Z,97485.77
2019-04-06T12:43:46.204Z,97486.09
2019-04-06T12:46:31.056Z,97482.88
2019-04-06T12:49:16.952Z,97481.67
2019-04-06T12:51:53.066Z,97487.67
2019-04-06T12:54:26.131Z,97488.42
2019-04-06T12:56:58.220Z,97489.06
2019-04-06T12:59:35.952Z,97498.01
2019-04-06T13:02:11.279Z,97499.25
2019-04-06T13:04:40.029Z,97491.73
2019-04-06T13:07:25.276Z,97486.02
2019-04-06T13:10:10.395Z,97471.74
2019-04-06T13:12:42.892Z,97468.31
2019-04-06T13:15:18.088Z,97467.52
2019-04-06T13:17:46.827Z,97461.14
2019-04-06T13:20:30.773Z,97453.17
2019-04-06T13:23:00.539Z,97460.28
2019-04-06T13:25:30.708Z,97449.47
2019-04-06T13:28:17.053Z,97447.05
2019-04-06T13:31:01.207Z,97447.29
2019-04-06T13:33:23.003Z,97439.63
2019-04-06T13:35:59.215Z,97437.19
2019-04-06T13:38:27.080Z,97446.71
2019-04-06T13:40:56.190Z,97446.11
2019-04-06T13:43:42.248Z,97449.22
2019-04-06T13:46:20.464Z,97444.03
2019-04-06T13:49:05.497Z,97440.56
2019-04-06T13:51:43.983Z,97440.73
2019-04-06T13:54:22.555Z,97435.03
2019-04-06T13:56:52.549Z,97432.78
2019-04-06T13:59:21.257Z,97423.85
2019-04-06T14:01:56.104Z,97423.53
2019-04-06T14:04:39.382Z,97433.92
2019-04-06T14:07:20.674Z,97430.11
2019-04-06T14:09:58.812Z,97428.02
2019-04-06T14:12:27.775Z,97430.61
2019-04-06T14:15:00.932Z,97430.31
2019-04-06T14:17:27.987Z,97424.77
2019-04-06T14:19:58.249Z,97427.08
2019-04-06T14:22:33.159Z,97423.12
2019-04-06T14:25:15.449Z,97418.55
2019-04-06T14:27:42.504Z,97422.05
2019-04-06T14:30:10.256Z,97421.55
2019-04-06T14:32:43.179Z,97433.13
2019-04-06T14:35:21.395Z,97427.38
2019-04-06T14:37:54.081Z,97428.19
2019-04-06T14:40:40.240Z,97428.23
2019-04-06T14:43:22.432Z,97422.31
2019-04-06T14:46:10.116Z,97419.41
2019-04-06T14:48:50.034Z,97420.64
2019-04-06T14:51:35.733Z,97417.36
2019-04-06T14:54:09.010Z,97411.90
2019-04-06T14:56:44.988Z,97405.58
2019-04-06T14:59:31.429Z,97402.21
2019-04-06T15:02:06.623Z,97396.95
2019-04-06T15:04:53.839Z,97400.17
2019-04-06T15:07:30.870Z,97394.55
2019-04-06T15:10:06.187Z,97392.55
2019-04-06T15:12:52.592Z,97389.78
2019-04-06T15:15:21.759Z,97388.45
2019-04-06T15:17:49.940Z,97396.33
2019-04-06T15:20:20.929Z,97392.84
2019-04-06T15:22:50.018Z,97397.17
2019-04-06T15:25:19.249Z,97391.80
2019-04-06T15:27:46.186Z,97386.86
2019-04-06T15:30:13.844Z,97386.91
2019-04-06T15:32:44.640Z,97387.20
2019-04-06T15:35:15.766Z,97384.39
2019-04-06T15:37:55.100Z,97380.39
2019-04-06T15:40:36.090Z,97383.92
2019-04-06T15:43:07.884Z,97377.09
2019-04-06T15:45:40.862Z,97374.29
2019-04-06T15:48:36.389Z,97368.62
2019-04-06T15:51:03.983Z,97374.97
2019-04-06T15:53:31.301Z,97376.17
2019-04-06T15:56:18.246Z,97366.75
2019-04-06T15:59:04.274Z,97374.94
2019-04-06T16:01:36.706Z,97363.47
2019-04-06T16:04:22.886Z,97360.09
2019-04-06T16:06:56.222Z,97362.02
2019-04-06T16:09:25.400Z,97355.79
2019-04-06T16:12:10.715Z,97359.45
2019-04-06T16:14:55.469Z,97354.77
2019-04-06T16:17:24.092Z,97349.69
2019-04-06T16:20:06.981Z,97359.80
2019-04-06T16:22:41.955Z,97355.63
2019-04-06T16:25:29.610Z,97358.78
2019-04-06T16:28:11.568Z,97358.14
2019-04-06T16:30:47.173Z,97360.02
2019-04-06T16:33:14.562Z,97357.45
2019-04-06T16:35:45.251Z,97357.02
2019-04-06T16:38:22.550Z,97357.02
2019-04-06T16:41:09.520Z,97356.30
2019-04-06T16:43:55.252Z,97356.08
2019-04-06T16:46:41.760Z,97357.36
2019-04-06T16:49:28.214Z,97359.83
2019-04-06T16:52:06.128Z,97353.94
2019-04-06T16:54:36.193Z,97360.55
2019-04-06T16:57:06.728Z,97358.53
2019-04-06T16:59:46.270Z,97353.93
2019-04-06T17:02:32.097Z,97347.48
2019-04-06T17:05:01.316Z,97355.16
2019-04-06T17:07:30.347Z,97355.44
2019-04-06T17:10:11.490Z,97357.67
2019-04-06T17:12:40.404Z,97354.52
2019-04-06T17:15:09.833Z,97359.55
2019-04-06T17:17:55.982Z,97356.37
2019-04-06T17:20:33.104Z,97351.98
2019-04-06T17:23:05.536Z,97351.43
2019-04-06T17:25:43.122Z,97354.06
2019-04-06T17:28:19.614Z,97355.49
2019-04-06T17:30:50.308Z,97357.48
2019-04-06T17:33:22.556Z,97353.83
2019-04-06T17:36:05.303Z,97359.55
2019-04-06T17:38:38.778Z,97358.90
2019-04-06T17:41:07.593Z,97354.16
2019-04-06T17:43:40.371Z,97364.31
2019-04-06T17:46:13.974Z,97359.41
2019-04-06T17:48:41.095Z,97357.63
2019-04-06T17:51:16.585Z,97358.61
2019-04-06T17:53:47.930Z,97365.14
2019-04-06T17:56:18.180Z,97354.56
2019-04-06T17:59:03.028Z,97360.16
2019-04-06T18:01:33.082Z,97365.72
2019-04-06T18:04:05.092Z,97370.28
2019-04-06T18:06:34.539Z,97377.83
2019-04-06T18:09:22.051Z,97371.53
2019-04-06T18:12:01.846Z,97376.94
2019-04-06T18:14:29.105Z,97373.22
2019-04-06T18:16:57.153Z,97385.59
2019-04-06T18:19:25.987Z,97384.27
2019-04-06T18:21:54.089Z,97381.38
2019-04-06T18:24:21.472Z,97376.34
2019-04-06T18:26:50.719Z,97389.73
2019-04-06T18:29:18.440Z,97387.45
2019-04-06T18:31:56.848Z,97392.00
2019-04-06T18:34:25.099Z,97391.10
2019-04-06T18:36:52.650Z,97396.75
2019-04-06T18:39:25.484Z,97397.53
2019-04-06T18:41:56.639Z,97401.63
2019-04-06T18:44:42.424Z,97407.61
2019-04-06T18:47:14.309Z,97412.37
2019-04-06T18:49:44.298Z,97407.06
2019-04-06T18:52:11.451Z,97412.73
2019-04-06T18:54:40.259Z,97412.81
2019-04-06T18:57:07.366Z,97415.77
2019-04-06T18:59:34.877Z,97419.40
2019-04-06T19:02:01.855Z,97426.42
2019-04-06T19:04:29.638Z,97421.89
2019-04-06T19:06:57.137Z,97424.52
2019-04-06T19:09:25.821Z,97421.57
2019-04-06T19:11:56.699Z,97428.68
2019-04-06T19:14:23.706Z,97427.53
2019-04-06T19:16:51.411Z,97434.98
2019-04-06T19:19:19.245Z,97436.65
2019-04-06T19:21:46.670Z,97442.88
2019-04-06T19:24:14.350Z,97440.23
2019-04-06T19:26:42.221Z,97440.92
2019-04-06T19:29:09.619Z,97442.85
2019-04-06T19:31:36.989Z,97442.61
2019-04-06T19:34:05.967Z,97450.29
2019-04-06T19:36:34.087Z,97451.27
2019-04-06T19:39:01.746Z,97451.39
2019-04-06T19:41:29.145Z,97457.58
2019-04-06T19:43:58.926Z,97449.53
2019-04-06T19:46:27.119Z,97453.08
2019-04-06T19:48:55.013Z,97451.16
2019-04-06T19:51:25.063Z,97449.45
2019-04-06T19:53:52.678Z,97446.05
2019-04-06T19:56:20.061Z,97447.43
2019-04-06T19:58:48.085Z,97442.64
2019-04-06T20:01:15.276Z,97448.41
2019-04-06T20:03:46.217Z,97444.05
2019-04-06T20:06:13.316Z,97436.03
2019-04-06T20:08:41.080Z,97435.76
2019-04-06T20:11:11.665Z,97433.02
2019-04-06T20:13:39.058Z,97433.28
2019-04-06T20:16:10.890Z,97433.02
2019-04-06T20:18:37.930Z,97435.02
2019-04-06T20:21:06.055Z,97429.65
2019-04-06T20:23:33.560Z,97422.41
2019-04-06T20:26:01.074Z,97429.88
2019-04-06T20:28:32.100Z,97425.44
2019-04-06T20:31:02.624Z,97435.34
2019-04-06T20:33:30.747Z,97429.88
2019-04-06T20:35:58.737Z,97433.09
2019-04-06T20:38:28.211Z,97430.73
2019-04-06T20:40:57.789Z,97430.03
2019-04-06T20:43:25.028Z,97423.53
2019-04-06T20:45:53.606Z,97431.41
2019-04-06T20:48:23.096Z,97429.98
2019-04-06T20:50:50.114Z,97426.58
2019-04-06T20:53:18.161Z,97430.41
2019-04-06T20:55:47.590Z,97419.48
2019-04-06T20:58:17.600Z,97420.91
2019-04-06T21:00:46.425Z,97427.11
2019-04-06T21:03:13.919Z,97428.38
2019-04-06T21:05:41.563Z,97424.25
2019-04-06T21:08:11.170Z,97426.06
2019-04-06T21:10:40.744Z,97419.38
2019-04-06T21:13:13.499Z,97416.77
2019-04-06T21:15:41.969Z,97414.84
2019-04-06T21:18:09.631Z,97417.55
2019-04-06T21:20:39.445Z,97408.09
2019-04-06T21:23:07.338Z,97415.67
2019-04-06T21:25:35.345Z,97410.67
2019-04-06T21:28:02.912Z,97410.07
2019-04-06T21:30:30.483Z,97414.83
2019-04-06T21:32:58.093Z,97416.36
2019-04-06T21:35:25.208Z,97415.12
2019-04-06T21:37:52.807Z,97413.70
2019-04-06T21:40:20.156Z,97414.52
2019-04-06T21:42:51.402Z,97421.98
2019-04-06T21:45:19.718Z,97421.81
2019-04-06T21:47:47.794Z,97422.45
2019-04-06T21:50:15.364Z,97422.28
2019-04-06T21:52:44.049Z,97417.52
2019-04-06T21:55:12.142Z,97416.64
2019-04-06T21:57:40.479Z,97427.45
2019-04-06T22:00:13.306Z,97423.02
2019-04-06T22:02:42.449Z,97424.44
2019-04-06T22:05:10.400Z,97419.68
2019-04-06T22:07:47.274Z,97424.51
2019-04-06T22:10:08.593Z,97422.31
2019-04-06T22:12:36.591Z,97420.48
2019-04-06T22:15:07.410Z,97430.22
2019-04-06T22:17:35.189Z,97422.61
2019-04-06T22:20:04.707Z,97430.80
2019-04-06T22:22:35.537Z,97423.25
2019-04-06T22:25:05.777Z,97430.63
2019-04-06T22:27:34.538Z,97432.77
2019-04-06T22:30:09.577Z,97437.94
2019-04-06T22:32:39.305Z,97431.66
2019-04-06T22:35:09.031Z,97433.88
2019-04-06T22:37:36.224Z,97428.33
2019-04-06T22:40:07.587Z,97435.38
2019-04-06T22:42:35.283Z,97427.20
2019-04-06T22:45:07.091Z,97428.15
2019-04-06T22:47:34.778Z,97431.19
2019-04-06T22:50:04.445Z,97426.95
2019-04-06T22:52:32.032Z,97423.06
2019-04-06T22:55:02.287Z,97423.54
2019-04-06T22:57:29.537Z,97419.53
2019-04-06T22:59:56.525Z,97417.31
2019-04-06T23:02:28.140Z,97413.67
2019-04-06T23:05:06.154Z,97413.11
2019-04-06T23:07:36.054Z,97413.11
2019-04-06T23:10:04.414Z,97408.04
2019-04-06T23:12:32.869Z,97409.99
2019-04-06T23:15:01.858Z,97415.69
2019-04-06T23:17:31.863Z,97408.46
2019-04-06T23:20:00.218Z,97408.31
2019-04-06T23:22:28.576Z,97406.87
2019-04-06T23:24:56.337Z,97402.82
2019-04-06T23:27:26.053Z,97403.34
2019-04-06T23:29:53.697Z,97409.23
2019-04-06T23:32:22.207Z,97410.58
2019-04-06T23:34:58.837Z,97404.35
2019-04-06T23:37:19.547Z,97403.81
2019-04-06T23:39:48.189Z,97405.80
2019-04-06T23:42:18.017Z,97402.13
2019-04-06T23:44:45.493Z,97408.22
2019-04-06T23:47:13.752Z,97405.46
2019-04-06T23:49:40.945Z,97410.37
2019-04-06T23:52:08.563Z,97406.96
2019-04-06T23:54:38.332Z,97403.06
2019-04-06T23:57:05.901Z,97411.53
2019-04-06T23:59:32.776Z,97409.63
